SJX311 ROAH-RCTP
Flight info
| Callsign | SJX311 |
|---|---|
| Flight time | 1h 16m |
| Altitude | 38000 |
| Route | GANJU Y576 LILRA Y573 SEDKU R595 GRACE GRACE1A |
| Aircraft | A21N/M-SDE2E3FGHIRWXY/LB1 |
Departure
| Time | 2026-04-25 13:39 |
|---|---|
| Airport | Naha International Airport (ROAH) |
Arrival
| Time | 2026-04-25 14:55 |
|---|---|
| Airport | Taiwan Taoyuan International Airport (RCTP) |
| Time | Latitude | Longitude | Altitude | Speed | Heading |
|---|---|---|---|---|---|
| 2026-04-25 13:15 | 26.21084 | 127.64980 | 34 ft | 0 kts | 88° |
| 2026-04-25 13:30 | 26.21084 | 127.64979 | 34 ft | 1 kts | 88° |
| 2026-04-25 13:30 | 26.21083 | 127.64953 | 34 ft | 4 kts | 88° |
| 2026-04-25 13:30 | 26.21081 | 127.64922 | 34 ft | 4 kts | 88° |
| 2026-04-25 13:31 | 26.21079 | 127.64863 | 34 ft | 4 kts | 88° |
| 2026-04-25 13:31 | 26.21078 | 127.64832 | 34 ft | 4 kts | 88° |
| 2026-04-25 13:31 | 26.21077 | 127.64803 | 34 ft | 4 kts | 89° |
| 2026-04-25 13:31 | 26.21080 | 127.64774 | 34 ft | 4 kts | 111° |
| 2026-04-25 13:32 | 26.21093 | 127.64752 | 33 ft | 4 kts | 156° |
| 2026-04-25 13:32 | 26.21104 | 127.64749 | 33 ft | 0 kts | 176° |
| 2026-04-25 13:35 | 26.21103 | 127.64749 | 33 ft | 1 kts | 176° |
| 2026-04-25 13:35 | 26.21088 | 127.64750 | 33 ft | 3 kts | 176° |
| 2026-04-25 13:35 | 26.21057 | 127.64752 | 34 ft | 6 kts | 176° |
| 2026-04-25 13:36 | 26.21011 | 127.64744 | 34 ft | 8 kts | 209° |
| 2026-04-25 13:36 | 26.20981 | 127.64686 | 33 ft | 10 kts | 265° |
| 2026-04-25 13:36 | 26.20977 | 127.64628 | 33 ft | 7 kts | 265° |
| 2026-04-25 13:36 | 26.20973 | 127.64569 | 33 ft | 9 kts | 265° |
| 2026-04-25 13:37 | 26.20970 | 127.64545 | 32 ft | 1 kts | 248° |
| 2026-04-25 13:37 | 26.20958 | 127.64530 | 32 ft | 4 kts | 217° |
| 2026-04-25 13:37 | 26.20923 | 127.64524 | 33 ft | 7 kts | 176° |
| 2026-04-25 13:37 | 26.20867 | 127.64528 | 34 ft | 9 kts | 176° |
| 2026-04-25 13:38 | 26.20783 | 127.64535 | 34 ft | 25 kts | 176° |
| 2026-04-25 13:38 | 26.20356 | 127.64551 | 34 ft | 96 kts | 178° |
| 2026-04-25 13:38 | 26.19485 | 127.64590 | 32 ft | 153 kts | 178° |
| 2026-04-25 13:38 | 26.18378 | 127.64627 | 503 ft | 154 kts | 176° |
| 2026-04-25 13:39 | 26.17299 | 127.64714 | 952 ft | 162 kts | 174° |
| 2026-04-25 13:39 | 26.16161 | 127.64788 | 1502 ft | 166 kts | 177° |
| 2026-04-25 13:39 | 26.14962 | 127.64820 | 1935 ft | 182 kts | 178° |
| 2026-04-25 13:39 | 26.13619 | 127.64882 | 2371 ft | 203 kts | 178° |
| 2026-04-25 13:40 | 26.12093 | 127.64911 | 2729 ft | 235 kts | 182° |
| 2026-04-25 13:40 | 26.10435 | 127.64491 | 3255 ft | 255 kts | 201° |
| 2026-04-25 13:40 | 26.08745 | 127.63801 | 4091 ft | 261 kts | 200° |
| 2026-04-25 13:40 | 26.07020 | 127.63140 | 5023 ft | 263 kts | 200° |
| 2026-04-25 13:41 | 26.05285 | 127.62484 | 5948 ft | 264 kts | 201° |
| 2026-04-25 13:41 | 26.03561 | 127.61837 | 6841 ft | 266 kts | 201° |
| 2026-04-25 13:41 | 26.01794 | 127.61176 | 7690 ft | 269 kts | 201° |
| 2026-04-25 13:41 | 26.00007 | 127.60509 | 8558 ft | 273 kts | 201° |
| 2026-04-25 13:42 | 25.98195 | 127.59833 | 9430 ft | 276 kts | 201° |
| 2026-04-25 13:42 | 25.96421 | 127.58991 | 10214 ft | 282 kts | 213° |
| 2026-04-25 13:42 | 25.94921 | 127.57507 | 10547 ft | 300 kts | 231° |
| 2026-04-25 13:42 | 25.93566 | 127.55638 | 10852 ft | 322 kts | 233° |
| 2026-04-25 13:43 | 25.92149 | 127.53640 | 11352 ft | 334 kts | 233° |
| 2026-04-25 13:43 | 25.90688 | 127.51610 | 12087 ft | 338 kts | 233° |
| 2026-04-25 13:43 | 25.89224 | 127.49595 | 12860 ft | 341 kts | 232° |
| 2026-04-25 13:43 | 25.87724 | 127.47544 | 13641 ft | 344 kts | 232° |
| 2026-04-25 13:44 | 25.86209 | 127.45482 | 14346 ft | 346 kts | 232° |
| 2026-04-25 13:44 | 25.84678 | 127.43403 | 15016 ft | 349 kts | 232° |
| 2026-04-25 13:44 | 25.83162 | 127.41292 | 15685 ft | 351 kts | 236° |
| 2026-04-25 13:44 | 25.81993 | 127.38919 | 16324 ft | 352 kts | 249° |
| 2026-04-25 13:45 | 25.81448 | 127.36265 | 16958 ft | 356 kts | 264° |
| 2026-04-25 13:45 | 25.81530 | 127.33508 | 17576 ft | 360 kts | 273° |
| 2026-04-25 13:45 | 25.81799 | 127.30735 | 18183 ft | 363 kts | 274° |
| 2026-04-25 13:45 | 25.82071 | 127.27979 | 18728 ft | 366 kts | 273° |
| 2026-04-25 13:46 | 25.82341 | 127.25164 | 19252 ft | 368 kts | 273° |
| 2026-04-25 13:46 | 25.82605 | 127.22328 | 19770 ft | 370 kts | 273° |
| 2026-04-25 13:46 | 25.82870 | 127.19481 | 20298 ft | 372 kts | 272° |
| 2026-04-25 13:46 | 25.83135 | 127.16618 | 20824 ft | 374 kts | 272° |
| 2026-04-25 13:47 | 25.83399 | 127.13737 | 21360 ft | 376 kts | 272° |
| 2026-04-25 13:47 | 25.83665 | 127.10832 | 21888 ft | 379 kts | 272° |
| 2026-04-25 13:47 | 25.83933 | 127.07914 | 22424 ft | 381 kts | 272° |
| 2026-04-25 13:47 | 25.84211 | 127.05019 | 22958 ft | 383 kts | 272° |
| 2026-04-25 13:48 | 25.84493 | 127.02071 | 23486 ft | 385 kts | 272° |
| 2026-04-25 13:48 | 25.84764 | 126.99100 | 23919 ft | 387 kts | 272° |
| 2026-04-25 13:48 | 25.85029 | 126.96120 | 24318 ft | 389 kts | 271° |
| 2026-04-25 13:48 | 25.85291 | 126.93121 | 24708 ft | 391 kts | 271° |
| 2026-04-25 13:49 | 25.85558 | 126.90107 | 25120 ft | 393 kts | 271° |
| 2026-04-25 13:49 | 25.85829 | 126.87077 | 25525 ft | 395 kts | 271° |
| 2026-04-25 13:49 | 25.86105 | 126.84040 | 25935 ft | 396 kts | 271° |
| 2026-04-25 13:49 | 25.86378 | 126.80998 | 26332 ft | 398 kts | 271° |
| 2026-04-25 13:50 | 25.86646 | 126.77974 | 26718 ft | 399 kts | 270° |
| 2026-04-25 13:50 | 25.86721 | 126.74907 | 27094 ft | 396 kts | 263° |
| 2026-04-25 13:50 | 25.86332 | 126.71892 | 27453 ft | 394 kts | 254° |
| 2026-04-25 13:50 | 25.85445 | 126.69016 | 27814 ft | 394 kts | 245° |
| 2026-04-25 13:51 | 25.84166 | 126.66326 | 28175 ft | 395 kts | 240° |
| 2026-04-25 13:51 | 25.82786 | 126.63683 | 28519 ft | 397 kts | 240° |
| 2026-04-25 13:51 | 25.81398 | 126.61031 | 28859 ft | 398 kts | 240° |
| 2026-04-25 13:51 | 25.80016 | 126.58366 | 29202 ft | 399 kts | 240° |
| 2026-04-25 13:52 | 25.78635 | 126.55691 | 29612 ft | 398 kts | 240° |
| 2026-04-25 13:52 | 25.77287 | 126.53074 | 30100 ft | 395 kts | 240° |
| 2026-04-25 13:52 | 25.75926 | 126.50429 | 30482 ft | 394 kts | 240° |
| 2026-04-25 13:52 | 25.74570 | 126.47798 | 30857 ft | 392 kts | 240° |
| 2026-04-25 13:53 | 25.73218 | 126.45177 | 31201 ft | 391 kts | 240° |
| 2026-04-25 13:53 | 25.71875 | 126.42558 | 31544 ft | 390 kts | 240° |
| 2026-04-25 13:53 | 25.70543 | 126.39947 | 31908 ft | 388 kts | 240° |
| 2026-04-25 13:53 | 25.69211 | 126.37348 | 32262 ft | 387 kts | 239° |
| 2026-04-25 13:54 | 25.67895 | 126.34790 | 32602 ft | 386 kts | 239° |
| 2026-04-25 13:54 | 25.66568 | 126.32218 | 32966 ft | 384 kts | 239° |
| 2026-04-25 13:54 | 25.65245 | 126.29654 | 33314 ft | 383 kts | 239° |
| 2026-04-25 13:54 | 25.63923 | 126.27101 | 33643 ft | 381 kts | 239° |
| 2026-04-25 13:55 | 25.62607 | 126.24553 | 33962 ft | 380 kts | 239° |
| 2026-04-25 13:55 | 25.61297 | 126.22022 | 34229 ft | 379 kts | 239° |
| 2026-04-25 13:55 | 25.59984 | 126.19496 | 34487 ft | 377 kts | 239° |
| 2026-04-25 13:55 | 25.58673 | 126.16987 | 34749 ft | 376 kts | 239° |
| 2026-04-25 13:56 | 25.57385 | 126.14521 | 34993 ft | 374 kts | 239° |
| 2026-04-25 13:56 | 25.56085 | 126.12027 | 35234 ft | 373 kts | 239° |
| 2026-04-25 13:56 | 25.54794 | 126.09543 | 35490 ft | 371 kts | 239° |
| 2026-04-25 13:56 | 25.53510 | 126.07068 | 35731 ft | 370 kts | 239° |
| 2026-04-25 13:57 | 25.52232 | 126.04609 | 35959 ft | 368 kts | 239° |
| 2026-04-25 13:57 | 25.49677 | 125.99703 | 36078 ft | 367 kts | 239° |
| 2026-04-25 13:58 | 25.47140 | 125.94842 | 36055 ft | 366 kts | 239° |
| 2026-04-25 13:58 | 25.44601 | 125.89961 | 36051 ft | 366 kts | 239° |
| 2026-04-25 13:59 | 25.42066 | 125.85068 | 36050 ft | 366 kts | 239° |
| 2026-04-25 13:59 | 25.39519 | 125.80191 | 36049 ft | 366 kts | 239° |
| 2026-04-25 14:00 | 25.36980 | 125.75354 | 36050 ft | 366 kts | 239° |
| 2026-04-25 14:00 | 25.34429 | 125.70481 | 36049 ft | 366 kts | 239° |
| 2026-04-25 14:01 | 25.31851 | 125.65636 | 36047 ft | 366 kts | 238° |
| 2026-04-25 14:01 | 25.29276 | 125.60786 | 36050 ft | 366 kts | 239° |
| 2026-04-25 14:02 | 25.26701 | 125.55943 | 36048 ft | 366 kts | 239° |
| 2026-04-25 14:02 | 25.24132 | 125.51136 | 36034 ft | 366 kts | 239° |
| 2026-04-25 14:03 | 25.21544 | 125.46293 | 36037 ft | 366 kts | 239° |
| 2026-04-25 14:03 | 25.18958 | 125.41459 | 36044 ft | 366 kts | 238° |
| 2026-04-25 14:04 | 25.16369 | 125.36624 | 36048 ft | 365 kts | 238° |
| 2026-04-25 14:04 | 25.13797 | 125.31829 | 36048 ft | 366 kts | 238° |
| 2026-04-25 14:05 | 25.11202 | 125.26999 | 36040 ft | 366 kts | 238° |
| 2026-04-25 14:05 | 25.08348 | 125.22361 | 36040 ft | 366 kts | 233° |
| 2026-04-25 14:06 | 25.05304 | 125.17899 | 36034 ft | 367 kts | 233° |
| 2026-04-25 14:06 | 25.02241 | 125.13404 | 36026 ft | 367 kts | 233° |
| 2026-04-25 14:07 | 24.99141 | 125.08922 | 36028 ft | 367 kts | 232° |
| 2026-04-25 14:07 | 24.95911 | 125.04562 | 36027 ft | 367 kts | 232° |
| 2026-04-25 14:08 | 24.92675 | 125.00195 | 36028 ft | 368 kts | 232° |
| 2026-04-25 14:08 | 24.89461 | 124.95864 | 36034 ft | 368 kts | 232° |
| 2026-04-25 14:09 | 24.86264 | 124.91468 | 36031 ft | 368 kts | 235° |
| 2026-04-25 14:09 | 24.84079 | 124.86390 | 36034 ft | 371 kts | 252° |
| 2026-04-25 14:10 | 24.83674 | 124.80708 | 36036 ft | 384 kts | 269° |
| 2026-04-25 14:10 | 24.84389 | 124.74859 | 36035 ft | 386 kts | 270° |
| 2026-04-25 14:11 | 24.85118 | 124.69017 | 36033 ft | 385 kts | 270° |
| 2026-04-25 14:11 | 24.85828 | 124.63176 | 36034 ft | 385 kts | 270° |
| 2026-04-25 14:12 | 24.86533 | 124.57337 | 36035 ft | 384 kts | 270° |
| 2026-04-25 14:12 | 24.87235 | 124.51507 | 36038 ft | 384 kts | 270° |
| 2026-04-25 14:13 | 24.87937 | 124.45716 | 36037 ft | 384 kts | 270° |
| 2026-04-25 14:13 | 24.88638 | 124.39896 | 36041 ft | 383 kts | 270° |
| 2026-04-25 14:14 | 24.89330 | 124.34079 | 36042 ft | 383 kts | 270° |
| 2026-04-25 14:14 | 24.90016 | 124.28276 | 36047 ft | 382 kts | 269° |
| 2026-04-25 14:15 | 24.90693 | 124.22513 | 36048 ft | 382 kts | 269° |
| 2026-04-25 14:15 | 24.91375 | 124.16723 | 36049 ft | 381 kts | 269° |
| 2026-04-25 14:16 | 24.92052 | 124.10939 | 36052 ft | 380 kts | 269° |
| 2026-04-25 14:16 | 24.92726 | 124.05161 | 36048 ft | 380 kts | 269° |
| 2026-04-25 14:17 | 24.93391 | 123.99394 | 36051 ft | 379 kts | 269° |
| 2026-04-25 14:17 | 24.93991 | 123.93636 | 36044 ft | 378 kts | 269° |
| 2026-04-25 14:18 | 24.94593 | 123.87913 | 36045 ft | 379 kts | 269° |
| 2026-04-25 14:18 | 24.95205 | 123.82143 | 36044 ft | 379 kts | 269° |
| 2026-04-25 14:18 | 24.95507 | 123.79283 | 35869 ft | 373 kts | 269° |
| 2026-04-25 14:19 | 24.95804 | 123.76435 | 35596 ft | 376 kts | 268° |
| 2026-04-25 14:19 | 24.96103 | 123.73555 | 35351 ft | 379 kts | 269° |
| 2026-04-25 14:19 | 24.96406 | 123.70672 | 35117 ft | 380 kts | 269° |
| 2026-04-25 14:19 | 24.96712 | 123.67770 | 34882 ft | 382 kts | 269° |
| 2026-04-25 14:20 | 24.97025 | 123.64859 | 34652 ft | 383 kts | 269° |
| 2026-04-25 14:20 | 24.97232 | 123.62922 | 34500 ft | 384 kts | 269° |
| 2026-04-25 14:20 | 24.97642 | 123.59044 | 34210 ft | 386 kts | 269° |
| 2026-04-25 14:20 | 24.97949 | 123.56095 | 33966 ft | 388 kts | 269° |
| 2026-04-25 14:21 | 24.98256 | 123.53138 | 33702 ft | 389 kts | 269° |
| 2026-04-25 14:21 | 24.98564 | 123.50172 | 33443 ft | 390 kts | 269° |
| 2026-04-25 14:21 | 24.98871 | 123.47199 | 33186 ft | 391 kts | 269° |
| 2026-04-25 14:21 | 24.99179 | 123.44211 | 32933 ft | 392 kts | 269° |
| 2026-04-25 14:22 | 24.99485 | 123.41220 | 32682 ft | 393 kts | 270° |
| 2026-04-25 14:22 | 24.99792 | 123.38222 | 32436 ft | 394 kts | 270° |
| 2026-04-25 14:22 | 25.00101 | 123.35221 | 32186 ft | 395 kts | 270° |
| 2026-04-25 14:22 | 25.00406 | 123.32244 | 31938 ft | 396 kts | 270° |
| 2026-04-25 14:23 | 25.00714 | 123.29235 | 31697 ft | 395 kts | 270° |
| 2026-04-25 14:23 | 25.01019 | 123.26239 | 31456 ft | 393 kts | 270° |
| 2026-04-25 14:23 | 25.01324 | 123.23245 | 31210 ft | 392 kts | 270° |
| 2026-04-25 14:23 | 25.01628 | 123.20259 | 30980 ft | 391 kts | 270° |
| 2026-04-25 14:24 | 25.01927 | 123.17297 | 30751 ft | 389 kts | 271° |
| 2026-04-25 14:24 | 25.02226 | 123.14335 | 30522 ft | 388 kts | 271° |
| 2026-04-25 14:24 | 25.02523 | 123.11385 | 30292 ft | 387 kts | 271° |
| 2026-04-25 14:24 | 25.02818 | 123.08441 | 30077 ft | 385 kts | 271° |
| 2026-04-25 14:25 | 25.03110 | 123.05507 | 30027 ft | 385 kts | 271° |
| 2026-04-25 14:25 | 25.03694 | 122.99629 | 30043 ft | 386 kts | 271° |
| 2026-04-25 14:26 | 25.04278 | 122.93750 | 30056 ft | 386 kts | 271° |
| 2026-04-25 14:26 | 25.04863 | 122.87910 | 30053 ft | 386 kts | 271° |
| 2026-04-25 14:27 | 25.05445 | 122.82026 | 30052 ft | 386 kts | 271° |
| 2026-04-25 14:27 | 25.06028 | 122.76144 | 29849 ft | 385 kts | 271° |
| 2026-04-25 14:27 | 25.06318 | 122.73220 | 29429 ft | 381 kts | 271° |
| 2026-04-25 14:28 | 25.06604 | 122.70325 | 28828 ft | 379 kts | 271° |
| 2026-04-25 14:28 | 25.06887 | 122.67445 | 28227 ft | 376 kts | 271° |
| 2026-04-25 14:28 | 25.07166 | 122.64591 | 27644 ft | 373 kts | 271° |
| 2026-04-25 14:28 | 25.07442 | 122.61749 | 27032 ft | 372 kts | 271° |
| 2026-04-25 14:29 | 25.07712 | 122.58961 | 26450 ft | 370 kts | 271° |
| 2026-04-25 14:29 | 25.07984 | 122.56147 | 25867 ft | 368 kts | 271° |
| 2026-04-25 14:29 | 25.08255 | 122.53347 | 25306 ft | 366 kts | 272° |
| 2026-04-25 14:29 | 25.08525 | 122.50565 | 24749 ft | 364 kts | 272° |
| 2026-04-25 14:30 | 25.08793 | 122.47787 | 24165 ft | 363 kts | 272° |
| 2026-04-25 14:30 | 25.09322 | 122.42294 | 22889 ft | 357 kts | 272° |
| 2026-04-25 14:30 | 25.09582 | 122.39582 | 22262 ft | 353 kts | 272° |
| 2026-04-25 14:31 | 25.09839 | 122.36901 | 21655 ft | 350 kts | 272° |
| 2026-04-25 14:31 | 25.10093 | 122.34244 | 21072 ft | 346 kts | 273° |
| 2026-04-25 14:31 | 25.10343 | 122.31655 | 20525 ft | 342 kts | 273° |
| 2026-04-25 14:31 | 25.10787 | 122.29078 | 20004 ft | 343 kts | 283° |
| 2026-04-25 14:32 | 25.11779 | 122.26671 | 19653 ft | 348 kts | 294° |
| 2026-04-25 14:32 | 25.13012 | 122.24374 | 19399 ft | 348 kts | 296° |
| 2026-04-25 14:32 | 25.14260 | 122.22098 | 19157 ft | 346 kts | 296° |
| 2026-04-25 14:32 | 25.15498 | 122.19823 | 18923 ft | 345 kts | 296° |
| 2026-04-25 14:33 | 25.16729 | 122.17550 | 18692 ft | 343 kts | 296° |
| 2026-04-25 14:33 | 25.17945 | 122.15291 | 18476 ft | 342 kts | 296° |
| 2026-04-25 14:33 | 25.19156 | 122.13035 | 18234 ft | 341 kts | 296° |
| 2026-04-25 14:33 | 25.20359 | 122.10791 | 17984 ft | 339 kts | 296° |
| 2026-04-25 14:34 | 25.21553 | 122.08553 | 17725 ft | 338 kts | 295° |
| 2026-04-25 14:34 | 25.22381 | 122.06177 | 17453 ft | 330 kts | 278° |
| 2026-04-25 14:34 | 25.22551 | 122.03695 | 17210 ft | 327 kts | 269° |
| 2026-04-25 14:34 | 25.22520 | 122.01191 | 16957 ft | 326 kts | 267° |
| 2026-04-25 14:35 | 25.22449 | 121.98688 | 16711 ft | 325 kts | 267° |
| 2026-04-25 14:35 | 25.22370 | 121.96201 | 16463 ft | 324 kts | 267° |
| 2026-04-25 14:35 | 25.22290 | 121.93715 | 16220 ft | 323 kts | 267° |
| 2026-04-25 14:35 | 25.22210 | 121.91237 | 15974 ft | 322 kts | 267° |
| 2026-04-25 14:36 | 25.22132 | 121.88768 | 15735 ft | 322 kts | 267° |
| 2026-04-25 14:36 | 25.22056 | 121.86297 | 15498 ft | 321 kts | 267° |
| 2026-04-25 14:36 | 25.21979 | 121.83838 | 15261 ft | 320 kts | 267° |
| 2026-04-25 14:36 | 25.21904 | 121.81414 | 15032 ft | 320 kts | 267° |
| 2026-04-25 14:37 | 25.21829 | 121.78961 | 14796 ft | 319 kts | 267° |
| 2026-04-25 14:37 | 25.21756 | 121.76519 | 14568 ft | 318 kts | 267° |
| 2026-04-25 14:37 | 25.21686 | 121.74078 | 14336 ft | 318 kts | 267° |
| 2026-04-25 14:37 | 25.21617 | 121.71635 | 14105 ft | 317 kts | 267° |
| 2026-04-25 14:38 | 25.21551 | 121.69203 | 13879 ft | 317 kts | 267° |
| 2026-04-25 14:38 | 25.21486 | 121.66771 | 13622 ft | 317 kts | 267° |
| 2026-04-25 14:38 | 25.21422 | 121.64343 | 13367 ft | 316 kts | 267° |
| 2026-04-25 14:38 | 25.21361 | 121.61951 | 13110 ft | 316 kts | 267° |
| 2026-04-25 14:39 | 25.21298 | 121.59529 | 12855 ft | 316 kts | 267° |
| 2026-04-25 14:39 | 25.21194 | 121.57110 | 12582 ft | 315 kts | 261° |
| 2026-04-25 14:39 | 25.20774 | 121.54735 | 12296 ft | 315 kts | 256° |
| 2026-04-25 14:39 | 25.20246 | 121.52386 | 11898 ft | 315 kts | 255° |
| 2026-04-25 14:40 | 25.19887 | 121.50837 | 11683 ft | 314 kts | 255° |
| 2026-04-25 14:40 | 25.19158 | 121.47714 | 11332 ft | 314 kts | 255° |
| 2026-04-25 14:40 | 25.18611 | 121.45375 | 11078 ft | 315 kts | 255° |
| 2026-04-25 14:40 | 25.18066 | 121.43040 | 10835 ft | 314 kts | 255° |
| 2026-04-25 14:41 | 25.17531 | 121.40742 | 10593 ft | 303 kts | 255° |
| 2026-04-25 14:41 | 25.17025 | 121.38551 | 10341 ft | 294 kts | 255° |
| 2026-04-25 14:41 | 25.16531 | 121.36396 | 10101 ft | 286 kts | 255° |
| 2026-04-25 14:41 | 25.16054 | 121.34295 | 9856 ft | 279 kts | 255° |
| 2026-04-25 14:42 | 25.15593 | 121.32246 | 9592 ft | 272 kts | 255° |
| 2026-04-25 14:42 | 25.15439 | 121.31560 | 9502 ft | 270 kts | 255° |
| 2026-04-25 14:42 | 25.14688 | 121.28233 | 9085 ft | 269 kts | 255° |
| 2026-04-25 14:42 | 25.14235 | 121.26232 | 8843 ft | 268 kts | 255° |
| 2026-04-25 14:43 | 25.13783 | 121.24244 | 8589 ft | 267 kts | 255° |
| 2026-04-25 14:43 | 25.13332 | 121.22260 | 8337 ft | 266 kts | 255° |
| 2026-04-25 14:43 | 25.12880 | 121.20278 | 8085 ft | 266 kts | 255° |
| 2026-04-25 14:43 | 25.12426 | 121.18303 | 7875 ft | 265 kts | 255° |
| 2026-04-25 14:44 | 25.11978 | 121.16352 | 7671 ft | 265 kts | 254° |
| 2026-04-25 14:44 | 25.11168 | 121.14551 | 7472 ft | 265 kts | 232° |
| 2026-04-25 14:44 | 25.09910 | 121.13058 | 7290 ft | 265 kts | 226° |
| 2026-04-25 14:44 | 25.08590 | 121.11639 | 7100 ft | 265 kts | 225° |
| 2026-04-25 14:45 | 25.07267 | 121.10234 | 6905 ft | 264 kts | 225° |
| 2026-04-25 14:45 | 25.05946 | 121.08827 | 6715 ft | 264 kts | 225° |
| 2026-04-25 14:45 | 25.04633 | 121.07426 | 6525 ft | 263 kts | 225° |
| 2026-04-25 14:45 | 25.03319 | 121.06015 | 6317 ft | 263 kts | 225° |
| 2026-04-25 14:46 | 25.02006 | 121.04605 | 6123 ft | 263 kts | 225° |
| 2026-04-25 14:46 | 25.00693 | 121.03195 | 5851 ft | 263 kts | 225° |
| 2026-04-25 14:46 | 24.99379 | 121.01783 | 5441 ft | 264 kts | 225° |
| 2026-04-25 14:46 | 24.98057 | 121.00365 | 4995 ft | 266 kts | 225° |
| 2026-04-25 14:47 | 24.96744 | 120.98960 | 4536 ft | 269 kts | 225° |
| 2026-04-25 14:47 | 24.96290 | 120.98477 | 4378 ft | 269 kts | 225° |
| 2026-04-25 14:47 | 24.94063 | 120.96140 | 3959 ft | 262 kts | 219° |
| 2026-04-25 14:47 | 24.92424 | 120.95280 | 3942 ft | 263 kts | 193° |
| 2026-04-25 14:48 | 24.90682 | 120.95300 | 3941 ft | 245 kts | 166° |
| 2026-04-25 14:48 | 24.89276 | 120.96237 | 3937 ft | 231 kts | 130° |
| 2026-04-25 14:48 | 24.88710 | 120.97781 | 3942 ft | 215 kts | 90° |
| 2026-04-25 14:48 | 24.89078 | 120.99350 | 3956 ft | 214 kts | 56° |
| 2026-04-25 14:49 | 24.90052 | 121.00575 | 3989 ft | 214 kts | 41° |
| 2026-04-25 14:49 | 24.91146 | 121.01637 | 3999 ft | 198 kts | 40° |
| 2026-04-25 14:49 | 24.92107 | 121.02601 | 4012 ft | 176 kts | 42° |
| 2026-04-25 14:49 | 24.92929 | 121.03501 | 4106 ft | 167 kts | 44° |
| 2026-04-25 14:50 | 24.93730 | 121.04430 | 4019 ft | 166 kts | 45° |
| 2026-04-25 14:50 | 24.94523 | 121.05360 | 3828 ft | 165 kts | 47° |
| 2026-04-25 14:50 | 24.95275 | 121.06303 | 3634 ft | 163 kts | 47° |
| 2026-04-25 14:50 | 24.96016 | 121.07242 | 3430 ft | 161 kts | 47° |
| 2026-04-25 14:51 | 24.96744 | 121.08169 | 3215 ft | 159 kts | 48° |
| 2026-04-25 14:51 | 24.97469 | 121.09091 | 3006 ft | 158 kts | 48° |
| 2026-04-25 14:51 | 24.98176 | 121.09991 | 2797 ft | 157 kts | 49° |
| 2026-04-25 14:51 | 24.98886 | 121.10895 | 2598 ft | 155 kts | 49° |
| 2026-04-25 14:52 | 24.99598 | 121.11802 | 2423 ft | 150 kts | 50° |
| 2026-04-25 14:52 | 25.00223 | 121.12598 | 2240 ft | 134 kts | 50° |
| 2026-04-25 14:52 | 25.00832 | 121.13374 | 2053 ft | 133 kts | 51° |
| 2026-04-25 14:52 | 25.01233 | 121.13884 | 1922 ft | 133 kts | 51° |
| 2026-04-25 14:53 | 25.02040 | 121.14912 | 1696 ft | 132 kts | 51° |
| 2026-04-25 14:53 | 25.02641 | 121.15679 | 1502 ft | 132 kts | 51° |
| 2026-04-25 14:53 | 25.03239 | 121.16440 | 1338 ft | 131 kts | 51° |
| 2026-04-25 14:53 | 25.03831 | 121.17195 | 1162 ft | 129 kts | 52° |
| 2026-04-25 14:54 | 25.04425 | 121.17945 | 990 ft | 131 kts | 52° |
| 2026-04-25 14:54 | 25.05026 | 121.18698 | 780 ft | 133 kts | 53° |
| 2026-04-25 14:54 | 25.05610 | 121.19465 | 642 ft | 131 kts | 53° |
| 2026-04-25 14:54 | 25.06212 | 121.20231 | 431 ft | 133 kts | 54° |
| 2026-04-25 14:55 | 25.06817 | 121.20990 | 278 ft | 131 kts | 53° |
| 2026-04-25 14:55 | 25.07408 | 121.21750 | 119 ft | 131 kts | 53° |
| 2026-04-25 14:55 | 25.07949 | 121.22458 | 108 ft | 104 kts | 45° |
| 2026-04-25 14:55 | 25.08298 | 121.22881 | 106 ft | 46 kts | 49° |
| 2026-04-25 14:56 | 25.08400 | 121.23036 | 105 ft | 20 kts | 63° |
| 2026-04-25 14:56 | 25.08444 | 121.23190 | 106 ft | 14 kts | 80° |
| 2026-04-25 14:56 | 25.08446 | 121.23202 | 106 ft | 5 kts | 80° |
| 2026-04-25 14:56 | 25.08454 | 121.23254 | 105 ft | 8 kts | 80° |
| 2026-04-25 14:57 | 25.08466 | 121.23327 | 106 ft | 11 kts | 80° |
| 2026-04-25 14:57 | 25.08474 | 121.23378 | 106 ft | 0 kts | 80° |
| 2026-04-25 14:58 | 25.08474 | 121.23379 | 106 ft | 1 kts | 80° |
| 2026-04-25 14:58 | 25.08476 | 121.23391 | 106 ft | 0 kts | 80° |
| 2026-04-25 14:58 | 25.08476 | 121.23393 | 106 ft | 1 kts | 80° |
| 2026-04-25 14:58 | 25.08479 | 121.23413 | 106 ft | 4 kts | 80° |
| 2026-04-25 14:59 | 25.08476 | 121.23451 | 106 ft | 7 kts | 124° |
| 2026-04-25 14:59 | 25.08441 | 121.23497 | 106 ft | 9 kts | 135° |
| 2026-04-25 14:59 | 25.08429 | 121.23533 | 106 ft | 4 kts | 66° |
| 2026-04-25 14:59 | 25.08438 | 121.23570 | 106 ft | 6 kts | 99° |
| 2026-04-25 15:00 | 25.08404 | 121.23615 | 105 ft | 9 kts | 139° |
| 2026-04-25 15:00 | 25.08383 | 121.23634 | 106 ft | 3 kts | 139° |
| 2026-04-25 15:00 | 25.08360 | 121.23656 | 106 ft | 3 kts | 139° |
| 2026-04-25 15:00 | 25.08352 | 121.23664 | 106 ft | 0 kts | 139° |